Time;durP1;ratioP1;P1;durP2;ratioP2;P2;SDS_P1;SDS_P2;PMS_P1;PMS_P2;Temp;Humidity;BMP_temperature;BMP_pressure;BME280_temperature;BME280_humidity;BME280_pressure;Samples;Min_cycle;Max_cycle;Signal;HPM_P1;HPM_P2
2023/06/04 00:01:12;;;;;;;14.75;4.85;;;10.50;99.90;;;;;;4909727;29;20118;-96
2023/06/04 00:03:59;;;;;;;9.77;4.07;;;11.20;99.90;;;;;;4888318;29;20083;-95
2023/06/04 00:07:09;;;;;;;11.90;3.83;;;10.50;99.90;;;;;;4912786;29;20386;-95
2023/06/04 00:09:54;;;;;;;9.25;4.18;;;10.60;99.90;;;;;;4912571;29;20374;-95
2023/06/04 00:12:32;;;;;;;15.23;4.78;;;10.40;99.90;;;;;;4901518;29;20139;-95
2023/06/04 00:15:09;;;;;;;10.68;4.40;;;10.40;99.90;;;;;;4900949;29;20139;-96
2023/06/04 00:18:34;;;;;;;12.55;4.65;;;10.30;99.90;;;;;;4881211;29;20045;-95
2023/06/04 00:21:21;;;;;;;12.93;4.15;;;10.60;99.90;;;;;;4809962;29;20062;-95
2023/06/04 00:23:50;;;;;;;14.70;4.28;;;10.30;99.90;;;;;;4918228;29;20055;-95
2023/06/04 00:26:57;;;;;;;14.55;4.60;;;10.20;99.90;;;;;;4916448;29;20051;-95
2023/06/04 00:30:14;;;;;;;14.63;4.43;;;10.30;99.90;;;;;;4895216;29;20052;-95
2023/06/04 00:33:09;;;;;;;14.10;4.60;;;10.30;99.90;;;;;;4900525;29;20058;-96
2023/06/04 00:39:29;;;;;;;11.45;5.10;;;10.20;99.90;;;;;;4898037;29;20056;-95
2023/06/04 00:42:09;;;;;;;14.25;5.13;;;10.20;99.90;;;;;;4882627;29;20052;-95
2023/06/04 00:44:53;;;;;;;11.90;5.05;;;10.10;99.90;;;;;;4897414;29;20052;-95
2023/06/04 00:47:42;;;;;;;18.60;6.05;;;10.00;99.90;;;;;;4898331;29;20157;-95
2023/06/04 00:50:39;;;;;;;17.98;5.63;;;10.00;99.90;;;;;;4896440;29;20051;-96
2023/06/04 00:53:22;;;;;;;13.67;5.50;;;10.00;99.90;;;;;;4918406;29;20492;-96
2023/06/04 00:56:00;;;;;;;13.05;5.63;;;10.00;99.90;;;;;;4900534;29;20052;-95
2023/06/04 00:58:53;;;;;;;11.15;5.38;;;10.00;99.90;;;;;;4914830;29;20055;-95
2023/06/04 01:01:37;;;;;;;15.88;6.03;;;10.00;99.90;;;;;;4882598;29;20068;-95
2023/06/04 01:04:10;;;;;;;17.50;5.10;;;10.10;99.90;;;;;;4900124;29;20047;-96
2023/06/04 01:06:40;;;;;;;;;;;9.90;99.90;;;;;;4900361;29;20106;-96
2023/06/04 01:09:47;;;;;;;12.25;5.05;;;9.90;99.90;;;;;;4900505;29;20364;-95
2023/06/04 01:12:19;;;;;;;15.18;4.78;;;9.80;99.90;;;;;;4920970;29;20131;-96
2023/06/04 01:15:38;;;;;;;13.90;4.88;;;9.80;99.90;;;;;;4930499;29;20051;-95
2023/06/04 01:19:10;;;;;;;10.90;4.40;;;9.70;99.90;;;;;;4874297;29;20047;-95
2023/06/04 01:22:21;;;;;;;10.10;3.95;;;9.80;99.90;;;;;;4882091;29;20135;-95
2023/06/04 01:25:23;;;;;;;10.43;4.05;;;9.70;99.90;;;;;;4871053;29;20059;-95
2023/06/04 01:28:27;;;;;;;16.00;5.07;;;9.70;99.90;;;;;;4895386;29;20058;-95
2023/06/04 01:31:03;;;;;;;;;;;9.50;99.90;;;;;;4868809;29;20068;-95
2023/06/04 01:34:07;;;;;;;15.05;4.47;;;9.50;99.90;;;;;;4921497;29;20013;-95
2023/06/04 01:36:39;;;;;;;10.70;4.85;;;9.50;99.90;;;;;;4848913;29;20065;-96
2023/06/04 01:39:32;;;;;;;8.90;3.90;;;9.30;99.90;;;;;;4898736;29;20608;-95
2023/06/04 01:42:15;;;;;;;20.08;4.85;;;9.40;99.90;;;;;;4905006;29;20063;-95
2023/06/04 01:44:58;;;;;;;12.38;4.97;;;9.40;99.90;;;;;;4893425;29;20408;-95
2023/06/04 01:48:06;;;;;;;10.90;4.75;;;9.50;99.90;;;;;;4897347;29;20046;-95
2023/06/04 01:51:18;;;;;;;14.43;5.30;;;9.40;99.90;;;;;;4930268;29;20079;-94
2023/06/04 01:54:19;;;;;;;12.75;4.75;;;9.40;99.90;;;;;;4889656;29;20400;-95
2023/06/04 01:57:09;;;;;;;14.85;5.07;;;9.40;99.90;;;;;;4904562;29;20126;-95
2023/06/04 02:00:16;;;;;;;14.02;5.00;;;9.90;99.90;;;;;;4901916;29;20084;-95
2023/06/04 02:03:02;;;;;;;;;;;;;;;;;;;;;
2023/06/04 02:05:45;;;;;;;6.10;2.65;;;9.40;99.90;;;;;;4918397;29;20414;-94
2023/06/04 02:12:09;;;;;;;4.38;1.70;;;9.30;99.90;;;;;;4880378;29;20410;-94
2023/06/04 02:14:42;;;;;;;2.30;1.10;;;9.10;99.90;;;;;;4910549;29;20155;-95
2023/06/04 02:17:42;;;;;;;2.97;1.17;;;8.90;99.90;;;;;;4911712;29;20087;-94
2023/06/04 02:20:20;;;;;;;2.00;1.10;;;8.80;99.90;;;;;;4903104;29;20070;-94
2023/06/04 02:23:06;;;;;;;4.40;1.55;;;8.70;99.90;;;;;;4902707;29;20085;-94
2023/06/04 02:26:06;;;;;;;2.40;1.33;;;9.00;99.90;;;;;;4917104;29;20056;-94
2023/06/04 02:28:48;;;;;;;4.82;2.40;;;8.60;99.90;;;;;;4902760;29;20063;-94
2023/06/04 02:32:03;;;;;;;6.47;3.00;;;8.60;99.90;;;;;;4918299;29;20147;-93
2023/06/04 02:35:22;;;;;;;8.10;3.58;;;8.40;99.90;;;;;;4912364;29;20079;-94
2023/06/04 02:38:49;;;;;;;10.95;5.20;;;8.60;99.90;;;;;;4886722;29;20047;-94
2023/06/04 02:41:39;;;;;;;27.63;9.60;;;8.60;99.90;;;;;;4876250;29;20147;-94
2023/06/04 02:44:13;;;;;;;12.73;6.72;;;8.70;99.90;;;;;;4892562;29;20471;-94
2023/06/04 02:47:50;;;;;;;23.13;8.07;;;8.70;99.90;;;;;;4916338;29;20507;-94
2023/06/04 02:50:43;;;;;;;17.75;6.43;;;8.90;99.90;;;;;;4891657;29;20094;-94
2023/06/04 02:53:23;;;;;;;12.00;5.70;;;8.80;99.90;;;;;;4906702;29;20063;-94
2023/06/04 02:56:10;;;;;;;13.77;5.90;;;8.90;99.90;;;;;;4891584;29;20040;-94
2023/06/04 02:59:00;;;;;;;23.05;6.55;;;8.90;99.90;;;;;;4890526;29;20078;-93
2023/06/04 03:01:56;;;;;;;13.80;6.65;;;8.90;99.90;;;;;;4901901;29;20055;-94
2023/06/04 03:04:44;;;;;;;12.45;5.50;;;8.90;99.90;;;;;;4897102;29;20492;-94
2023/06/04 03:07:57;;;;;;;;;;;;;;;;;;;;;
2023/06/04 03:11:01;;;;;;;17.98;7.53;;;8.90;99.90;;;;;;4903852;29;20052;-94
2023/06/04 03:14:01;;;;;;;;;;;;;;;;;;;;;
2023/06/04 03:16:33;;;;;;;12.20;5.30;;;8.90;99.90;;;;;;4916991;29;20131;-94
2023/06/04 03:19:32;;;;;;;12.70;5.57;;;9.40;99.90;;;;;;4901980;29;20066;-94
2023/06/04 03:22:33;;;;;;;9.50;4.75;;;8.90;99.90;;;;;;4909297;29;20516;-94
2023/06/04 03:25:16;;;;;;;;;;;8.80;99.90;;;;;;4912202;29;20048;-94
2023/06/04 03:28:30;;;;;;;10.38;5.25;;;8.40;99.90;;;;;;4912151;29;19977;-95
2023/06/04 03:31:12;;;;;;;8.60;4.22;;;8.80;99.90;;;;;;4935141;29;20051;-95
2023/06/04 03:34:35;;;;;;;12.90;5.50;;;8.70;99.90;;;;;;4937144;29;20190;-94
2023/06/04 03:37:09;;;;;;;9.95;4.45;;;8.80;99.90;;;;;;4869171;29;20247;-94
2023/06/04 03:39:50;;;;;;;7.43;4.38;;;8.70;99.90;;;;;;4934236;29;20059;-93
2023/06/04 03:42:49;;;;;;;9.50;4.05;;;8.70;99.90;;;;;;4918197;29;20495;-94
2023/06/04 03:45:47;;;;;;;8.57;4.40;;;8.70;99.90;;;;;;4900835;29;20056;-94
2023/06/04 03:48:51;;;;;;;13.00;4.13;;;8.80;99.90;;;;;;4847995;29;20053;-94
2023/06/04 03:52:28;;;;;;;12.50;4.50;;;8.70;99.90;;;;;;4906162;29;20134;-94
2023/06/04 03:55:21;;;;;;;25.63;4.20;;;8.90;99.90;;;;;;4905193;29;20050;-94
2023/06/04 03:57:59;;;;;;;7.93;4.10;;;8.80;99.90;;;;;;4910665;29;20177;-94
2023/06/04 04:01:19;;;;;;;13.50;4.43;;;8.90;99.90;;;;;;4934115;29;20530;-94
2023/06/04 04:03:58;;;;;;;10.10;3.88;;;8.90;99.90;;;;;;4935171;29;20134;-94
2023/06/04 04:06:38;;;;;;;26.02;5.95;;;9.10;99.90;;;;;;4919171;29;20094;-94
2023/06/04 04:09:12;;;;;;;8.05;3.83;;;8.90;99.90;;;;;;4916807;29;20043;-95
2023/06/04 04:11:44;;;;;;;12.35;4.93;;;9.20;99.90;;;;;;4915136;29;20059;-95
2023/06/04 04:14:36;;;;;;;10.18;5.32;;;9.30;99.90;;;;;;4928900;29;20475;-94
2023/06/04 04:17:23;;;;;;;10.25;4.60;;;9.30;99.90;;;;;;4911997;29;20496;-94
2023/06/04 04:20:25;;;;;;;11.73;5.72;;;9.60;99.90;;;;;;4918000;29;20405;-94
2023/06/04 04:23:31;;;;;;;14.07;6.55;;;9.30;99.90;;;;;;4872684;29;20148;-94
2023/06/04 04:26:42;;;;;;;10.82;6.68;;;9.50;99.90;;;;;;4876617;29;20058;-95
2023/06/04 04:30:09;;;;;;;14.52;6.63;;;9.70;99.90;;;;;;4909166;29;20103;-94
2023/06/04 04:33:19;;;;;;;12.70;7.05;;;9.50;99.90;;;;;;4919852;29;20540;-94
2023/06/04 04:36:26;;;;;;;11.05;6.05;;;10.20;99.90;;;;;;4923635;29;20078;-94
2023/06/04 04:39:12;;;;;;;12.60;6.50;;;9.70;99.90;;;;;;4928786;29;20492;-94
2023/06/04 04:42:27;;;;;;;12.30;6.60;;;9.80;99.90;;;;;;4888925;29;20052;-95
2023/06/04 04:45:21;;;;;;;15.00;8.57;;;9.80;99.90;;;;;;4933249;29;20051;-94
2023/06/04 04:48:10;;;;;;;13.18;6.22;;;9.90;99.90;;;;;;4915806;29;20051;-94
2023/06/04 04:51:25;;;;;;;18.33;7.55;;;9.80;99.90;;;;;;4932344;29;20046;-95
2023/06/04 04:54:09;;;;;;;11.30;7.35;;;10.00;99.90;;;;;;4943044;29;20059;-95
2023/06/04 04:57:42;;;;;;;10.73;7.15;;;10.20;99.90;;;;;;4923162;29;20516;-94
2023/06/04 05:04:35;;;;;;;15.80;8.20;;;10.40;99.90;;;;;;4890477;29;20043;-95
2023/06/04 05:07:12;;;;;;;19.30;8.25;;;10.70;99.90;;;;;;4927149;29;20058;-95
2023/06/04 05:10:19;;;;;;;15.35;8.65;;;10.70;99.90;;;;;;4933572;29;20062;-96
2023/06/04 05:13:07;;;;;;;17.35;7.78;;;10.80;99.90;;;;;;4929113;29;20047;-94
2023/06/04 05:15:53;;;;;;;17.20;7.53;;;11.00;99.90;;;;;;4912237;29;20113;-93
2023/06/04 05:18:32;;;;;;;17.02;7.60;;;11.10;99.90;;;;;;4937509;29;20051;-95
2023/06/04 05:21:29;;;;;;;17.58;8.13;;;11.20;99.90;;;;;;4921658;29;20110;-95
2023/06/04 05:27:51;;;;;;;18.65;7.35;;;11.50;99.90;;;;;;4919606;28;20063;-95
2023/06/04 05:30:49;;;;;;;16.67;7.32;;;11.70;99.90;;;;;;4917509;29;20047;-96
2023/06/04 05:33:39;;;;;;;16.55;6.95;;;11.90;99.90;;;;;;4933805;29;20083;-95
2023/06/04 05:36:32;;;;;;;15.10;7.70;;;12.00;99.90;;;;;;4922344;29;20520;-96
2023/06/04 05:43:24;;;;;;;;;;;;;;;;;;;;;
2023/06/04 05:49:34;;;;;;;18.33;6.70;;;12.50;99.90;;;;;;4852077;29;20052;-96
2023/06/04 05:55:38;;;;;;;14.05;5.78;;;12.70;99.90;;;;;;4903239;29;19969;-96
2023/06/04 06:02:32;;;;;;;13.13;6.25;;;12.90;99.90;;;;;;4907864;29;20179;-96
2023/06/04 06:05:39;;;;;;;12.70;5.47;;;13.10;99.90;;;;;;4947305;28;20050;-96
2023/06/04 06:08:59;;;;;;;15.00;5.72;;;13.20;99.90;;;;;;4945980;29;20062;-96
2023/06/04 06:11:51;;;;;;;13.27;5.13;;;13.40;99.90;;;;;;4860788;29;20069;-96
2023/06/04 06:14:50;;;;;;;13.43;5.40;;;13.50;99.90;;;;;;4919113;29;20040;-95
2023/06/04 06:17:42;;;;;;;16.25;4.88;;;13.60;99.90;;;;;;4922552;28;20055;-96
2023/06/04 06:20:55;;;;;;;16.08;4.28;;;14.10;99.90;;;;;;4937441;29;20510;-95
2023/06/04 06:24:24;;;;;;;11.20;3.28;;;13.60;99.90;;;;;;4897106;28;20059;-94
2023/06/04 06:27:02;;;;;;;11.00;3.38;;;13.90;99.90;;;;;;4872533;29;20272;-96
2023/06/04 06:30:16;;;;;;;9.07;2.10;;;14.10;99.90;;;;;;4933504;28;20062;-96
2023/06/04 06:33:37;;;;;;;;;;;;;;;;;;;;;
2023/06/04 06:37:32;;;;;;;12.63;2.70;;;14.30;99.90;;;;;;4899024;29;20078;-96
2023/06/04 06:40:39;;;;;;;8.55;2.25;;;14.40;99.90;;;;;;4893039;29;20052;-96
2023/06/04 06:43:16;;;;;;;8.10;1.67;;;14.60;99.90;;;;;;4913387;29;20220;-95
2023/06/04 06:47:18;;;;;;;12.07;2.20;;;14.70;99.90;;;;;;4931874;29;20047;-96
2023/06/04 06:49:43;;;;;;;5.40;1.80;;;14.80;99.90;;;;;;4918163;29;20056;-96
2023/06/04 06:52:33;;;;;;;8.82;2.10;;;14.80;99.90;;;;;;4935093;29;20047;-96
2023/06/04 06:55:30;;;;;;;10.80;2.20;;;14.90;99.90;;;;;;4914212;29;20050;-96
2023/06/04 06:58:34;;;;;;;6.80;1.70;;;15.00;99.90;;;;;;4939457;29;20090;-95
2023/06/04 07:01:51;;;;;;;7.40;2.03;;;15.10;99.90;;;;;;4930547;29;20401;-95
2023/06/04 07:07:37;;;;;;;11.90;2.30;;;15.20;99.90;;;;;;4861121;29;20433;-94
2023/06/04 07:10:44;;;;;;;;;;;;;;;;;;;;;
2023/06/04 07:14:11;;;;;;;6.40;2.10;;;15.40;99.90;;;;;;4919845;29;20063;-95
2023/06/04 07:24:58;;;;;;;;;;;15.80;99.90;;;;;;4893961;29;20110;-95
2023/06/04 07:44:26;;;;;;;25.30;2.40;;;16.40;99.90;;;;;;5104648;23;20178;-96
2023/06/04 07:49:31;;;;;;;9.00;1.83;;;16.50;99.90;;;;;;4938921;23;20055;-96
2023/06/04 07:52:00;;;;;;;9.32;1.92;;;16.50;99.90;;;;;;4899129;29;20160;-96
2023/06/04 07:54:28;;;;;;;7.25;1.73;;;16.50;99.90;;;;;;4897382;29;20044;-96
2023/06/04 07:56:55;;;;;;;5.90;1.35;;;16.60;99.90;;;;;;4908009;29;20056;-96
2023/06/04 07:59:24;;;;;;;4.85;1.15;;;16.70;99.90;;;;;;4904449;29;20048;-96
2023/06/04 08:01:56;;;;;;;5.78;1.65;;;16.70;99.90;;;;;;4894240;29;20058;-96
2023/06/04 08:04:25;;;;;;;6.05;1.63;;;16.60;99.90;;;;;;4927748;29;20503;-96
2023/06/04 08:06:55;;;;;;;10.65;1.55;;;16.70;99.90;;;;;;4930722;29;20044;-96
2023/06/04 08:09:20;;;;;;;7.80;1.63;;;16.70;99.90;;;;;;4913975;29;20043;-96
2023/06/04 08:11:46;;;;;;;7.68;1.40;;;16.80;99.90;;;;;;4896850;29;20079;-94
2023/06/04 08:14:15;;;;;;;6.65;1.42;;;16.90;99.90;;;;;;4897947;29;20059;-96
2023/06/04 08:16:41;;;;;;;11.77;2.78;;;16.60;99.90;;;;;;4908551;29;20059;-95
2023/06/04 08:19:07;;;;;;;8.45;1.70;;;17.20;99.90;;;;;;4896982;29;20044;-94
2023/06/04 08:21:34;;;;;;;10.82;1.60;;;17.20;99.90;;;;;;4898043;29;20484;-90
2023/06/04 08:24:00;;;;;;;9.05;1.38;;;17.30;99.90;;;;;;4896705;29;20044;-91
2023/06/04 08:26:26;;;;;;;8.63;1.88;;;17.30;99.90;;;;;;4897202;29;20102;-91
2023/06/04 08:28:53;;;;;;;5.22;1.52;;;17.40;99.90;;;;;;4900438;29;20047;-93
2023/06/04 08:31:18;;;;;;;5.05;1.40;;;17.40;99.90;;;;;;4887853;29;20043;-94
2023/06/04 08:33:46;;;;;;;3.63;1.20;;;17.50;99.90;;;;;;4906775;29;20043;-96
2023/06/04 08:36:47;;;;;;;7.88;1.40;;;17.60;99.90;;;;;;4901538;29;20120;-96
2023/06/04 08:39:17;;;;;;;6.63;1.50;;;17.50;99.90;;;;;;4905152;29;20078;-96
2023/06/04 08:41:49;;;;;;;4.97;1.33;;;17.80;99.90;;;;;;4896536;29;20048;-96
2023/06/04 08:44:23;;;;;;;6.88;2.00;;;17.80;99.90;;;;;;4932973;29;20078;-96
2023/06/04 08:47:04;;;;;;;6.93;1.58;;;18.00;99.90;;;;;;4912337;29;20067;-94
2023/06/04 08:49:40;;;;;;;4.95;1.50;;;17.90;99.90;;;;;;4893332;29;20056;-95
2023/06/04 08:52:06;;;;;;;7.30;1.55;;;17.90;99.90;;;;;;4895801;29;20083;-95
2023/06/04 08:54:33;;;;;;;6.85;1.38;;;17.90;99.90;;;;;;4899957;29;20079;-94
2023/06/04 08:57:00;;;;;;;5.47;1.40;;;17.90;99.90;;;;;;4886699;29;20051;-95
2023/06/04 08:59:27;;;;;;;9.35;1.80;;;18.00;99.90;;;;;;4899118;29;20563;-96
2023/06/04 09:01:55;;;;;;;5.82;1.40;;;18.00;99.90;;;;;;4896052;29;20127;-96
2023/06/04 09:04:21;;;;;;;4.72;1.50;;;18.00;99.90;;;;;;4899266;29;20380;-96
2023/06/04 09:06:48;;;;;;;5.55;1.35;;;18.10;99.90;;;;;;4908798;29;20099;-96
2023/06/04 09:09:17;;;;;;;5.30;1.55;;;18.20;99.90;;;;;;4908146;29;20050;-96
2023/06/04 09:11:52;;;;;;;7.60;1.40;;;18.30;99.90;;;;;;4905890;29;20039;-96
2023/06/04 09:14:18;;;;;;;4.88;1.40;;;18.40;99.90;;;;;;4906384;29;20043;-96
2023/06/04 09:17:01;;;;;;;7.15;1.30;;;18.40;99.90;;;;;;4914435;29;20050;-96
2023/06/04 09:19:27;;;;;;;5.32;1.20;;;18.60;99.90;;;;;;4913150;29;20059;-96
2023/06/04 09:21:56;;;;;;;6.75;1.42;;;18.50;99.90;;;;;;4907464;29;20044;-96
2023/06/04 09:24:24;;;;;;;4.40;1.20;;;18.60;99.90;;;;;;4902953;29;20115;-96
2023/06/04 09:26:50;;;;;;;3.60;1.25;;;18.50;99.90;;;;;;4904586;29;20138;-96
2023/06/04 09:29:19;;;;;;;7.78;1.25;;;18.60;99.90;;;;;;4906950;29;20043;-96
2023/06/04 09:31:47;;;;;;;6.78;1.27;;;18.70;99.90;;;;;;4882419;29;20060;-96
2023/06/04 09:34:15;;;;;;;6.25;2.05;;;18.70;99.90;;;;;;4916092;29;20052;-96
2023/06/04 09:36:44;;;;;;;4.60;1.40;;;18.60;99.90;;;;;;4932373;29;20059;-96
2023/06/04 09:39:17;;;;;;;5.53;1.13;;;18.60;99.90;;;;;;4918482;29;20050;-96
2023/06/04 09:41:43;;;;;;;7.88;1.55;;;18.70;99.90;;;;;;4915639;29;20052;-96
2023/06/04 09:44:11;;;;;;;3.70;1.17;;;18.80;99.90;;;;;;4907908;29;20044;-96
2023/06/04 09:46:38;;;;;;;5.75;1.25;;;18.90;99.90;;;;;;4902778;29;20040;-96
2023/06/04 09:49:05;;;;;;;5.32;1.80;;;18.80;99.90;;;;;;4895446;29;20051;-96
2023/06/04 09:51:48;;;;;;;4.70;1.25;;;18.90;99.90;;;;;;4907702;29;20056;-96
2023/06/04 09:54:15;;;;;;;3.15;1.20;;;18.90;99.90;;;;;;4861582;29;20040;-96
2023/06/04 09:56:42;;;;;;;4.18;1.25;;;18.90;99.90;;;;;;4871507;29;20045;-96
2023/06/04 09:59:10;;;;;;;5.68;1.50;;;19.00;99.90;;;;;;4864729;29;20449;-96
2023/06/04 10:01:39;;;;;;;3.85;1.30;;;19.00;99.90;;;;;;4851658;29;20477;-96
2023/06/04 10:04:07;;;;;;;4.32;1.27;;;19.00;99.90;;;;;;4889235;29;20059;-96
2023/06/04 10:06:36;;;;;;;10.15;1.60;;;19.00;99.90;;;;;;4880642;29;20056;-96
2023/06/04 10:09:07;;;;;;;3.38;1.00;;;18.90;99.90;;;;;;4890858;29;20044;-96
2023/06/04 10:11:37;;;;;;;3.97;1.13;;;19.10;99.90;;;;;;4888045;29;20055;-96
2023/06/04 10:14:19;;;;;;;5.63;1.33;;;19.10;99.90;;;;;;4887088;29;20079;-96
2023/06/04 10:17:05;;;;;;;4.57;1.27;;;19.00;99.90;;;;;;4889101;29;20057;-96
2023/06/04 10:19:34;;;;;;;4.13;1.42;;;19.10;99.90;;;;;;4890246;29;20072;-96
2023/06/04 10:21:59;;;;;;;4.70;1.00;;;19.10;99.90;;;;;;4896192;29;20049;-94
2023/06/04 10:24:26;;;;;;;5.50;1.25;;;19.20;99.90;;;;;;4880125;29;20058;-95
2023/06/04 10:26:55;;;;;;;5.72;1.20;;;19.20;99.90;;;;;;4876134;29;20049;-93
2023/06/04 10:29:25;;;;;;;6.53;1.13;;;19.20;99.90;;;;;;4878451;29;20048;-94
2023/06/04 10:31:55;;;;;;;5.70;1.45;;;19.30;99.90;;;;;;4885126;29;20052;-96
2023/06/04 10:34:21;;;;;;;7.78;1.20;;;19.30;99.90;;;;;;4881817;29;20533;-95
2023/06/04 10:36:46;;;;;;;14.15;1.73;;;19.40;99.90;;;;;;4884618;29;20139;-94
2023/06/04 10:39:28;;;;;;;4.97;1.00;;;19.50;99.90;;;;;;4870540;29;20135;-95
2023/06/04 10:42:05;;;;;;;6.95;1.55;;;19.50;99.90;;;;;;4882437;29;20052;-96
2023/06/04 10:44:52;;;;;;;4.57;1.10;;;19.50;99.90;;;;;;4881861;29;20048;-96
2023/06/04 10:47:22;;;;;;;5.50;1.20;;;19.40;99.90;;;;;;4898226;29;20068;-94
2023/06/04 10:49:49;;;;;;;2.33;1.00;;;19.60;99.90;;;;;;4892569;29;20124;-95
2023/06/04 10:52:15;;;;;;;2.60;0.98;;;19.70;99.90;;;;;;4871888;29;20131;-96
2023/06/04 10:54:43;;;;;;;6.18;1.73;;;19.80;99.90;;;;;;4871604;29;20113;-96
2023/06/04 10:57:21;;;;;;;3.50;1.20;;;19.80;99.90;;;;;;4875315;29;20234;-96
2023/06/04 10:59:55;;;;;;;5.43;1.30;;;19.70;99.90;;;;;;4875193;29;20044;-96
2023/06/04 11:02:21;;;;;;;3.78;1.20;;;19.80;99.90;;;;;;4875148;29;20049;-96
2023/06/04 11:04:47;;;;;;;4.03;1.08;;;19.80;99.90;;;;;;4902503;29;20048;-96
2023/06/04 11:07:13;;;;;;;6.85;1.40;;;19.70;99.90;;;;;;4900353;29;20516;-96
2023/06/04 11:10:00;;;;;;;5.40;1.50;;;19.80;99.90;;;;;;4907720;29;20044;-96
2023/06/04 11:12:26;;;;;;;5.50;1.25;;;19.90;99.90;;;;;;4874775;29;20130;-96
2023/06/04 11:14:55;;;;;;;5.80;1.60;;;19.80;99.90;;;;;;4879036;29;20044;-96
2023/06/04 11:17:30;;;;;;;5.53;1.27;;;19.80;99.90;;;;;;4878785;29;20045;-96
2023/06/04 11:20:24;;;;;;;4.70;1.20;;;19.80;99.90;;;;;;4894248;29;20047;-96
2023/06/04 11:22:56;;;;;;;6.15;1.30;;;19.80;99.90;;;;;;4889368;29;20044;-96
2023/06/04 11:25:26;;;;;;;4.63;1.38;;;19.80;99.90;;;;;;4883138;29;20049;-96
2023/06/04 11:30:41;;;;;;;6.55;1.50;;;19.90;99.90;;;;;;5189489;23;20119;-96
2023/06/04 11:33:07;;;;;;;5.07;1.27;;;19.90;99.90;;;;;;4915860;29;20044;-96
2023/06/04 11:35:41;;;;;;;7.53;2.20;;;19.90;99.90;;;;;;4917243;28;20043;-96
2023/06/04 11:38:07;;;;;;;4.00;1.30;;;19.80;99.90;;;;;;4932908;29;20035;-96
2023/06/04 11:40:34;;;;;;;9.25;1.73;;;20.10;99.90;;;;;;4954239;29;20054;-96
2023/06/04 11:43:04;;;;;;;8.73;1.90;;;20.20;99.90;;;;;;4917198;29;20052;-96
2023/06/04 11:45:37;;;;;;;12.98;1.90;;;20.10;99.90;;;;;;4933316;29;20059;-96
2023/06/04 11:48:30;;;;;;;5.90;1.73;;;20.20;99.90;;;;;;5216448;23;20411;-96
2023/06/04 11:51:31;;;;;;;5.53;2.03;;;20.20;99.90;;;;;;4919654;29;20079;-96
2023/06/04 11:57:19;;;;;;;4.78;1.33;;;20.10;99.90;;;;;;5250379;23;20052;-96
2023/06/04 11:59:45;;;;;;;5.53;1.58;;;20.20;99.90;;;;;;4914495;29;20071;-96
2023/06/04 12:02:11;;;;;;;5.47;1.52;;;20.10;99.90;;;;;;4912781;29;20047;-96
2023/06/04 12:04:38;;;;;;;7.28;1.50;;;20.00;99.90;;;;;;4896263;29;20510;-96
2023/06/04 12:07:06;;;;;;;7.40;1.58;;;20.40;99.90;;;;;;4923009;29;20119;-96
2023/06/04 12:09:36;;;;;;;3.67;1.30;;;20.20;99.90;;;;;;4941353;29;20165;-96
2023/06/04 12:12:05;;;;;;;4.22;1.25;;;20.20;99.90;;;;;;4935097;29;20071;-96
2023/06/04 12:17:29;;;;;;;7.43;1.50;;;20.20;99.90;;;;;;4966246;23;20199;-96
2023/06/04 12:27:34;;;;;;;5.50;1.60;;;20.20;99.90;;;;;;4891886;29;20053;-94
2023/06/04 12:30:04;;;;;;;5.32;1.70;;;20.30;99.90;;;;;;4867028;29;20060;-94
2023/06/04 12:32:35;;;;;;;7.32;1.30;;;20.30;99.90;;;;;;4878452;29;20083;-96
2023/06/04 12:35:03;;;;;;;4.97;1.30;;;20.30;99.80;;;;;;4870928;29;20056;-96
2023/06/04 12:37:36;;;;;;;5.50;1.23;;;20.40;99.90;;;;;;4874200;29;20049;-96
2023/06/04 12:40:04;;;;;;;6.93;1.63;;;20.20;99.90;;;;;;4855308;29;20037;-96
2023/06/04 12:42:54;;;;;;;6.53;1.30;;;20.20;99.90;;;;;;4864406;29;20049;-96
2023/06/04 12:45:20;;;;;;;6.28;1.27;;;20.20;99.90;;;;;;4866782;29;20123;-96
2023/06/04 12:48:13;;;;;;;4.60;1.25;;;20.10;99.90;;;;;;4899390;29;20033;-96
2023/06/04 13:01:16;;;;;;;4.82;1.10;;;19.90;99.90;;;;;;4881721;29;20372;-96
2023/06/04 13:03:42;;;;;;;6.78;1.48;;;19.80;99.90;;;;;;4850822;29;20049;-96
2023/06/04 13:06:10;;;;;;;5.20;1.25;;;19.70;99.90;;;;;;4858200;29;20060;-96
2023/06/04 13:08:37;;;;;;;3.28;1.08;;;19.70;99.90;;;;;;4881755;29;20034;-96
2023/06/04 13:11:03;;;;;;;5.80;1.50;;;19.70;99.90;;;;;;4879148;29;20091;-96
2023/06/04 13:13:35;;;;;;;4.47;0.90;;;19.80;99.90;;;;;;4874404;29;20041;-96
2023/06/04 13:16:01;;;;;;;6.32;1.25;;;19.70;99.90;;;;;;4858463;29;20056;-95
2023/06/04 13:18:28;;;;;;;6.05;1.23;;;19.60;99.90;;;;;;4845894;29;20064;-96
2023/06/04 13:21:09;;;;;;;5.75;1.27;;;19.50;99.90;;;;;;4871976;29;20045;-96
2023/06/04 13:23:35;;;;;;;8.27;1.20;;;19.60;99.90;;;;;;4853881;29;20068;-96
2023/06/04 13:26:02;;;;;;;6.32;1.15;;;19.50;99.90;;;;;;4870974;29;20053;-96
2023/06/04 13:28:28;;;;;;;4.93;1.35;;;19.50;99.90;;;;;;4860888;29;20053;-93
2023/06/04 13:30:53;;;;;;;4.85;1.20;;;19.40;99.90;;;;;;4847871;29;20109;-95
2023/06/04 13:33:22;;;;;;;4.15;1.00;;;19.40;99.90;;;;;;4862434;29;20049;-96
2023/06/04 13:35:50;;;;;;;6.15;1.10;;;19.30;99.90;;;;;;4858768;29;20113;-96
2023/06/04 13:38:15;;;;;;;5.43;1.25;;;19.30;99.90;;;;;;4864378;29;20051;-94
2023/06/04 13:40:42;;;;;;;5.50;1.20;;;19.30;99.90;;;;;;4855071;29;20033;-96
2023/06/04 13:43:08;;;;;;;4.82;1.05;;;19.20;99.90;;;;;;4866063;29;20133;-96
2023/06/04 13:45:36;;;;;;;6.10;1.48;;;19.10;99.90;;;;;;4883741;29;20135;-94
2023/06/04 13:48:05;;;;;;;5.00;1.38;;;19.00;99.90;;;;;;4868622;29;20036;-96
2023/06/04 13:50:44;;;;;;;9.13;1.65;;;19.00;99.90;;;;;;4878181;29;20052;-96
2023/06/04 13:53:26;;;;;;;5.47;1.30;;;18.90;99.90;;;;;;4865030;29;20105;-96
2023/06/04 13:55:57;;;;;;;6.57;1.40;;;18.80;99.90;;;;;;4876894;29;20163;-96
2023/06/04 14:03:58;;;;;;;5.65;1.38;;;18.80;99.90;;;;;;4938280;29;20080;-96
2023/06/04 14:06:35;;;;;;;6.13;1.50;;;18.80;99.90;;;;;;5534256;23;21128;-96
2023/06/04 14:10:04;;;;;;;4.18;1.17;;;18.80;99.90;;;;;;4903402;29;20155;-97
2023/06/04 14:12:55;;;;;;;7.05;1.40;;;18.80;99.90;;;;;;4906964;29;20080;-96
2023/06/04 14:15:21;;;;;;;7.15;1.30;;;18.80;99.90;;;;;;4879846;29;20057;-96
2023/06/04 14:23:38;;;;;;;6.25;1.40;;;18.70;99.90;;;;;;5512664;23;20040;-96
2023/06/04 14:29:34;;;;;;;6.63;1.20;;;18.70;99.90;;;;;;4905334;29;20053;-96
2023/06/04 14:32:05;;;;;;;6.35;1.40;;;18.70;99.90;;;;;;4999101;23;20064;-96
2023/06/04 14:34:33;;;;;;;4.07;1.23;;;18.80;99.90;;;;;;4870839;29;20370;-96
2023/06/04 14:37:00;;;;;;;6.22;1.23;;;18.90;99.90;;;;;;4878049;29;20053;-96
2023/06/04 14:40:01;;;;;;;4.55;1.35;;;18.80;99.90;;;;;;4870827;29;20057;-96
2023/06/04 14:45:18;;;;;;;5.88;1.23;;;18.70;99.90;;;;;;4902863;29;20064;-96
2023/06/04 14:47:50;;;;;;;5.80;1.60;;;18.70;99.90;;;;;;4915716;29;20036;-96
2023/06/04 14:50:16;;;;;;;5.35;1.67;;;18.60;99.90;;;;;;4958583;23;20048;-96
2023/06/04 14:55:53;;;;;;;6.68;1.20;;;18.70;99.90;;;;;;4891839;29;20045;-96
2023/06/04 14:58:37;;;;;;;6.97;1.48;;;18.70;99.90;;;;;;4901600;29;20057;-96
2023/06/04 15:01:04;;;;;;;7.20;1.40;;;18.70;99.90;;;;;;4898280;29;20040;-96
2023/06/04 15:03:30;;;;;;;5.93;1.33;;;18.60;99.90;;;;;;4944873;23;20065;-95
2023/06/04 15:05:56;;;;;;;4.90;1.30;;;18.70;99.90;;;;;;4860434;29;20670;-96
2023/06/04 15:08:22;;;;;;;6.30;1.42;;;18.70;99.90;;;;;;4871921;29;20227;-96
2023/06/04 15:10:54;;;;;;;12.88;1.63;;;18.70;99.90;;;;;;4907481;29;20059;-96
2023/06/04 15:13:37;;;;;;;9.52;1.58;;;18.60;99.90;;;;;;4882179;29;20063;-96
2023/06/04 15:16:09;;;;;;;9.27;1.77;;;18.50;99.90;;;;;;4887505;29;20044;-96
2023/06/04 15:21:33;;;;;;;7.65;1.38;;;18.70;99.90;;;;;;4918045;29;20068;-96
2023/06/04 15:24:09;;;;;;;7.43;1.80;;;18.70;99.90;;;;;;5805995;23;20127;-96
2023/06/04 15:29:25;;;;;;;9.27;1.65;;;18.60;99.90;;;;;;4877209;29;20045;-96
2023/06/04 15:40:26;;;;;;;11.00;1.67;;;18.70;99.90;;;;;;5223445;23;20058;-96
2023/06/04 15:46:04;;;;;;;12.07;1.60;;;18.70;99.90;;;;;;4960104;23;20063;-96
2023/06/04 15:48:32;;;;;;;6.95;1.80;;;18.60;99.90;;;;;;4885136;29;20087;-96
2023/06/04 15:50:58;;;;;;;8.52;1.80;;;18.70;99.90;;;;;;4878190;29;20048;-96
2023/06/04 15:53:24;;;;;;;5.32;1.60;;;18.70;99.90;;;;;;4896306;29;20123;-96
2023/06/04 15:56:15;;;;;;;;;;;;;;;;;;;;;
2023/06/04 15:58:43;;;;;;;7.22;1.70;;;18.80;99.90;;;;;;4891221;29;20052;-96
2023/06/04 16:01:11;;;;;;;7.18;1.80;;;18.80;99.90;;;;;;4876721;29;20104;-96
2023/06/04 16:03:43;;;;;;;5.00;1.40;;;18.50;99.90;;;;;;4891027;29;20064;-96
2023/06/04 16:06:10;;;;;;;10.40;1.75;;;18.90;99.90;;;;;;4865321;29;20048;-96
2023/06/04 16:08:37;;;;;;;5.85;1.70;;;18.80;99.90;;;;;;4891955;29;20052;-95
2023/06/04 16:11:10;;;;;;;4.18;1.60;;;18.80;99.90;;;;;;4872637;29;20045;-96
2023/06/04 16:13:44;;;;;;;8.50;2.00;;;18.80;99.90;;;;;;4902846;29;20055;-96
2023/06/04 16:16:14;;;;;;;5.38;1.45;;;18.70;99.90;;;;;;4868077;29;20120;-96
2023/06/04 16:18:41;;;;;;;8.73;2.03;;;18.70;99.90;;;;;;4873909;29;20048;-96